Time;durP1;ratioP1;P1;durP2;ratioP2;P2;SDS_P1;SDS_P2;PMS_P1;PMS_P2;Temp;Humidity;BMP_temperature;BMP_pressure;BME280_temperature;BME280_humidity;BME280_pressure;Samples;Min_cycle;Max_cycle;Signal;HPM_P1;HPM_P2
2022/01/20 00:03:22;;;;;;;;;;;;;;;;;;5096003;28;19908;-71
2022/01/20 00:08:30;;;;;;;;;;;4.00;99.90;;;;;;5095196;28;19920;-71
2022/01/20 00:27:27;;;;;;;;;;;3.80;99.90;;;;;;5095311;28;19923;-71
2022/01/20 00:33:20;;;;;;;;;;;3.80;99.90;;;;;;5095563;28;19908;-71
2022/01/20 00:35:21;;;;;;;;;;;3.70;99.90;;;;;;5084399;28;19915;-71
2022/01/20 00:37:47;;;;;;;;;;;;;;;;;;5095610;28;19913;-75
2022/01/20 00:40:13;;;;;;;;;;;3.70;99.90;;;;;;5076135;28;19919;-71
2022/01/20 00:42:39;;;;;;;;;;;3.70;99.90;;;;;;5094954;28;19943;-71
2022/01/20 00:45:05;;;;;;;;;;;3.70;99.90;;;;;;5094028;28;19919;-71
2022/01/20 00:47:30;;;;;;;;;;;3.70;99.90;;;;;;5094745;28;20431;-71
2022/01/20 00:49:56;;;;;;;;;;;3.70;99.90;;;;;;5094291;28;19908;-71
2022/01/20 00:52:21;;;;;;;;;;;3.70;99.90;;;;;;5095409;28;20010;-71
2022/01/20 00:54:47;;;;;;;;;;;3.60;99.90;;;;;;5095009;28;19912;-71
2022/01/20 00:57:13;;;;;;;;;;;3.60;99.90;;;;;;5093960;28;19914;-71
2022/01/20 00:59:39;;;;;;;;;;;3.50;99.90;;;;;;5076817;28;20005;-71
2022/01/20 01:02:09;;;;;;;;;;;3.60;99.90;;;;;;5094471;28;20329;-70
2022/01/20 01:04:35;;;;;;;;;;;;;;;;;;5076689;28;19948;-70
2022/01/20 01:07:23;;;;;;;;;;;3.60;99.90;;;;;;5093770;28;19993;-70
2022/01/20 01:09:49;;;;;;;;;;;;;;;;;;5094312;28;19912;-70
2022/01/20 01:12:23;;;;;;;;;;;3.50;99.90;;;;;;5094136;28;19908;-70
2022/01/20 01:14:51;;;;;;;;;;;3.50;99.90;;;;;;5076653;28;19908;-70
2022/01/20 01:20:18;;;;;;;;;;;3.60;99.90;;;;;;5094561;28;20310;-70
2022/01/20 01:22:34;;;;;;;;;;;;;;;;;;5088569;28;19909;-70
2022/01/20 01:25:01;;;;;;;;;;;3.40;99.90;;;;;;5093686;28;19965;-69
2022/01/20 01:27:33;;;;;;;;;;;3.40;99.90;;;;;;5076179;28;19916;-70
2022/01/20 01:30:19;;;;;;;;;;;3.40;99.90;;;;;;5093598;28;19919;-70
2022/01/20 01:32:50;;;;;;;;;;;3.40;99.90;;;;;;5094348;28;19908;-70
2022/01/20 01:35:17;;;;;;;;;;;3.40;99.90;;;;;;5093967;28;19916;-70
2022/01/20 01:40:32;;;;;;;;;;;3.40;99.90;;;;;;5037793;28;19912;-70
2022/01/20 01:43:00;;;;;;;;;;;3.40;99.90;;;;;;5093310;28;19971;-70
2022/01/20 01:45:29;;;;;;;;;;;3.40;99.90;;;;;;5093932;28;19908;-70
2022/01/20 01:47:54;;;;;;;;;;;;;;;;;;5093769;28;19916;-75
2022/01/20 01:50:20;;;;;;;;;;;3.50;99.90;;;;;;5093740;28;19931;-70
2022/01/20 01:52:47;;;;;;;;;;;3.50;99.90;;;;;;5093168;28;19908;-70
2022/01/20 01:55:13;;;;;;;;;;;3.60;99.90;;;;;;5093151;28;19912;-70
2022/01/20 01:57:38;;;;;;;;;;;3.60;99.90;;;;;;5093810;28;19999;-70
2022/01/20 02:00:05;;;;;;;;;;;3.70;99.90;;;;;;5092773;28;20038;-70
2022/01/20 02:02:31;;;;;;;;;;;3.70;99.90;;;;;;5092886;28;19908;-70
2022/01/20 02:04:57;;;;;;;;;;;;;;;;;;5092898;28;19908;-75
2022/01/20 02:21:00;;;;;;;;;;;3.70;99.90;;;;;;5092685;28;19908;-70
2022/01/20 02:23:27;;;;;;;;;;;3.70;99.90;;;;;;5075177;28;19914;-70
2022/01/20 02:25:53;;;;;;;;;;;3.70;99.90;;;;;;5075191;28;20007;-70
2022/01/20 02:28:18;;;;;;;;;;;3.70;99.90;;;;;;5074172;28;20424;-70
2022/01/20 02:30:44;;;;;;;;;;;3.70;99.90;;;;;;5093302;28;19908;-70
2022/01/20 02:33:11;;;;;;;;;;;3.70;99.90;;;;;;5092165;28;19914;-69
2022/01/20 02:35:38;;;;;;;;;;;3.70;99.90;;;;;;5075302;28;20019;-70
2022/01/20 02:38:13;;;;;;;;;;;3.80;99.90;;;;;;5092848;28;19912;-70
2022/01/20 02:45:52;;;;;;;;;;;3.80;99.90;;;;;;5092660;28;19931;-69
2022/01/20 02:48:18;;;;;;;;;;;3.80;99.90;;;;;;5092144;28;20465;-69
2022/01/20 02:50:43;;;;;;;;;;;3.80;99.90;;;;;;5093036;28;19934;-69
2022/01/20 02:53:09;;;;;;;;;;;3.80;99.90;;;;;;5092258;28;20302;-69
2022/01/20 02:55:34;;;;;;;;;;;3.60;99.90;;;;;;5093261;28;19934;-69
2022/01/20 02:58:00;;;;;;;;;;;;;;;;;;5092017;28;19934;-74
2022/01/20 03:00:26;;;;;;;;;;;3.50;99.90;;;;;;5092826;28;20010;-71
2022/01/20 03:02:51;;;;;;;;;;;3.50;99.90;;;;;;5092617;28;19908;-70
2022/01/20 03:05:17;;;;;;;;;;;3.40;99.90;;;;;;5092109;28;20000;-72
2022/01/20 03:07:45;;;;;;;;;;;3.40;99.90;;;;;;5074085;28;19927;-72
2022/01/20 03:10:11;;;;;;;;;;;3.40;99.90;;;;;;5091969;28;19913;-71
2022/01/20 03:12:36;;;;;;;;;;;3.30;99.90;;;;;;5092776;28;20357;-71
2022/01/20 03:15:02;;;;;;;;;;;3.30;99.90;;;;;;5073606;28;19915;-72
2022/01/20 03:17:28;;;;;;;;;;;3.30;99.90;;;;;;5092878;28;20461;-72
2022/01/20 03:19:54;;;;;;;;;;;3.30;99.90;;;;;;5092301;28;20272;-71
2022/01/20 03:22:19;;;;;;;;;;;3.30;99.90;;;;;;5091786;28;19904;-71
2022/01/20 03:24:45;;;;;;;;;;;3.30;99.90;;;;;;5092308;28;19908;-71
2022/01/20 03:27:10;;;;;;;;;;;3.20;99.90;;;;;;5091702;28;20380;-72
2022/01/20 03:29:36;;;;;;;;;;;3.30;99.90;;;;;;5091930;28;19908;-71
2022/01/20 03:32:02;;;;;;;;;;;;;;;;;;5091485;28;20364;-78
2022/01/20 03:34:27;;;;;;;;;;;3.30;99.90;;;;;;5092473;28;19912;-72
2022/01/20 03:36:53;;;;;;;;;;;3.30;99.90;;;;;;5074331;28;20334;-72
2022/01/20 03:39:19;;;;;;;;;;;3.40;99.90;;;;;;5091561;28;19916;-72
2022/01/20 03:41:45;;;;;;;;;;;3.40;99.90;;;;;;5092413;28;19912;-72
2022/01/20 03:44:10;;;;;;;;;;;3.40;99.90;;;;;;5091908;28;19908;-72
2022/01/20 03:46:36;;;;;;;;;;;3.40;99.90;;;;;;5091849;28;19970;-72
2022/01/20 03:49:09;;;;;;;;;;;3.40;99.90;;;;;;5091403;28;19916;-72
2022/01/20 03:51:34;;;;;;;;;;;3.40;99.90;;;;;;5092474;28;19908;-72
2022/01/20 03:54:00;;;;;;;;;;;;;;;;;;5092091;28;19915;-77
2022/01/20 03:56:26;;;;;;;;;;;3.40;99.90;;;;;;5073795;28;19908;-72
2022/01/20 03:58:51;;;;;;;;;;;3.40;99.90;;;;;;5092006;28;19962;-72
2022/01/20 04:01:18;;;;;;;;;;;3.50;99.90;;;;;;5091481;28;19952;-72
2022/01/20 04:03:44;;;;;;;;;;;3.50;99.90;;;;;;5092142;28;20339;-72
2022/01/20 04:06:10;;;;;;;;;;;3.50;99.90;;;;;;5091345;28;19958;-72
2022/01/20 04:08:36;;;;;;;;;;;;;;;;;;5092266;28;19967;-72
2022/01/20 04:11:02;;;;;;;;;;;;;;;;;;5091813;28;19951;-77
2022/01/20 04:13:31;;;;;;;;;;;3.60;99.90;;;;;;5091678;28;19970;-72
2022/01/20 04:16:03;;;;;;;;;;;3.60;99.90;;;;;;5094808;28;19908;-72
2022/01/20 04:18:29;;;;;;;;;;;3.60;99.90;;;;;;5095534;28;19919;-72
2022/01/20 04:20:55;;;;;;;;;;;3.60;99.90;;;;;;5095749;28;19908;-72
2022/01/20 04:23:20;;;;;;;;;;;3.50;99.90;;;;;;5076918;28;19985;-72
2022/01/20 04:25:46;;;;;;;;;;;3.50;99.90;;;;;;5095735;28;20268;-72
2022/01/20 04:28:12;;;;;;;;;;;3.50;99.90;;;;;;5094993;28;20310;-72
2022/01/20 04:30:37;;;;;;;;;;;3.60;99.90;;;;;;5095256;28;20326;-72
2022/01/20 04:33:03;;;;;;;;;;;;;;;;;;5076532;28;19908;-77
2022/01/20 04:35:29;;;;;;;;;;;3.60;99.90;;;;;;5095200;28;19908;-72
2022/01/20 04:37:56;;;;;;;;;;;3.60;99.90;;;;;;5077121;28;19912;-72
2022/01/20 04:40:22;;;;;;;;;;;3.60;99.90;;;;;;5076327;28;19916;-72
2022/01/20 04:42:49;;;;;;;;;;;3.60;99.90;;;;;;5095173;28;19918;-72
2022/01/20 04:45:23;;;;;;;;;;;3.50;99.90;;;;;;5076147;28;19908;-72
2022/01/20 04:47:58;;;;;;;;;;;3.50;99.90;;;;;;5095172;28;19927;-72
2022/01/20 04:58:37;;;;;;;;;;;;;;;;;;5094926;28;19958;-72
2022/01/20 05:01:03;;;;;;;;;;;;;;;;;;5094982;28;19912;-72
2022/01/20 05:03:29;;;;;;;;;;;;;;;;;;5094391;28;19909;-71
2022/01/20 05:05:55;;;;;;;;;;;3.40;99.90;;;;;;5094893;28;20238;-72
2022/01/20 05:08:23;;;;;;;;;;;3.50;99.90;;;;;;5094042;28;19920;-72
2022/01/20 05:10:49;;;;;;;;;;;3.50;99.90;;;;;;5094762;28;20002;-72
2022/01/20 05:13:23;;;;;;;;;;;3.50;99.90;;;;;;5093596;28;19990;-72
2022/01/20 05:15:48;;;;;;;;;;;3.50;99.90;;;;;;5094670;28;19912;-72
2022/01/20 05:18:14;;;;;;;;;;;3.60;99.90;;;;;;5093715;28;20324;-72
2022/01/20 05:20:40;;;;;;;;;;;3.60;99.90;;;;;;5076098;28;19914;-70
2022/01/20 05:23:06;;;;;;;;;;;;;;;;;;5075556;28;19939;-76
2022/01/20 05:25:31;;;;;;;;;;;;;;;;;;5094200;28;19916;-71
2022/01/20 05:27:57;;;;;;;;;;;3.60;99.90;;;;;;5076196;28;20275;-70
2022/01/20 05:30:23;;;;;;;;;;;3.60;99.90;;;;;;5093575;28;20395;-71
2022/01/20 05:32:48;;;;;;;;;;;3.60;99.90;;;;;;5093932;28;19915;-70
2022/01/20 05:35:14;;;;;;;;;;;3.60;99.90;;;;;;5093610;28;19908;-71
2022/01/20 05:37:39;;;;;;;;;;;;;;;;;;5094095;28;19912;-70
2022/01/20 05:40:05;;;;;;;;;;;;;;;;;;5094167;28;20261;-75
2022/01/20 05:42:31;;;;;;;;;;;3.60;99.90;;;;;;5075452;28;19908;-71
2022/01/20 05:44:57;;;;;;;;;;;3.60;99.90;;;;;;5094010;28;19908;-72
2022/01/20 05:47:26;;;;;;;;;;;3.60;99.90;;;;;;5093326;28;19978;-72
2022/01/20 05:49:51;;;;;;;;;;;3.50;99.90;;;;;;5094016;28;20348;-69
2022/01/20 05:52:19;;;;;;;;;;;3.50;99.90;;;;;;5093531;28;19923;-70
2022/01/20 05:54:44;;;;;;;;;;;3.60;99.90;;;;;;5075710;28;19908;-71
2022/01/20 05:57:11;;;;;;;;;;;;;;;;;;5075069;28;20280;-78
2022/01/20 05:59:36;;;;;;;;;;;;;;;;;;5093825;28;19908;-69
2022/01/20 06:02:11;;;;;;;;;;;3.40;99.90;;;;;;5075554;28;19908;-70
2022/01/20 06:04:37;;;;;;;;;;;;;;;;;;5093785;28;19909;-70
2022/01/20 06:07:02;;;;;;;;;;;3.40;99.90;;;;;;5093106;28;20322;-70
2022/01/20 06:09:28;;;;;;;;;;;3.40;99.90;;;;;;5093187;28;19927;-68
2022/01/20 06:11:53;;;;;;;;;;;3.40;99.90;;;;;;5093164;28;19916;-70
2022/01/20 06:14:19;;;;;;;;;;;3.40;99.90;;;;;;5074540;28;19908;-70
2022/01/20 06:16:44;;;;;;;;;;;3.40;99.90;;;;;;5074788;28;19958;-70
2022/01/20 06:19:10;;;;;;;;;;;;;;;;;;5074855;28;19908;-76
2022/01/20 06:21:38;;;;;;;;;;;;;;;;;;5093001;28;20015;-70
2022/01/20 06:24:03;;;;;;;;;;;3.40;99.90;;;;;;5075443;28;19914;-70
2022/01/20 06:26:29;;;;;;;;;;;3.40;99.90;;;;;;5092651;28;20214;-70
2022/01/20 06:28:54;;;;;;;;;;;3.40;99.90;;;;;;5093331;28;19912;-70
2022/01/20 06:31:20;;;;;;;;;;;;;;;;;;5092435;28;20403;-69
2022/01/20 06:33:47;;;;;;;;;;;3.40;99.90;;;;;;5092975;28;20352;-70
2022/01/20 06:36:12;;;;;;;;;;;;;;;;;;5092147;28;20379;-76
2022/01/20 06:38:38;;;;;;;;;;;3.30;99.90;;;;;;5092662;28;19916;-70
2022/01/20 06:41:03;;;;;;;;;;;3.30;99.90;;;;;;5092776;28;19908;-70
2022/01/20 06:43:29;;;;;;;;;;;;;;;;;;5092319;28;19919;-70
2022/01/20 06:45:55;;;;;;;;;;;3.30;99.90;;;;;;5074883;28;19915;-70
2022/01/20 06:48:20;;;;;;;;;;;3.30;99.90;;;;;;5092098;28;19912;-70
2022/01/20 06:50:46;;;;;;;;;;;3.30;99.90;;;;;;5093000;28;19912;-71
2022/01/20 06:53:12;;;;;;;;;;;;;;;;;;5092300;28;19915;-78
2022/01/20 06:55:37;;;;;;;;;;;3.30;99.90;;;;;;5092275;28;20348;-70
2022/01/20 06:58:03;;;;;;;;;;;3.30;99.90;;;;;;5074401;28;19908;-68
2022/01/20 07:00:28;;;;;;;;;;;3.20;99.90;;;;;;5091741;28;19908;-73
2022/01/20 07:02:54;;;;;;;;;;;3.30;99.90;;;;;;5074251;28;20313;-71
2022/01/20 07:05:20;;;;;;;;;;;3.20;99.90;;;;;;5091976;28;19941;-70
2022/01/20 07:07:46;;;;;;;;;;;3.20;99.90;;;;;;5092174;28;20015;-71
2022/01/20 07:10:12;;;;;;;;;;;;;;;;;;5092147;28;19955;-77
2022/01/20 07:12:38;;;;;;;;;;;3.20;99.90;;;;;;5074256;28;20347;-69
2022/01/20 07:15:04;;;;;;;;;;;3.20;99.90;;;;;;5074609;28;19914;-70
2022/01/20 07:17:30;;;;;;;;;;;3.30;99.90;;;;;;5073584;28;19946;-70
2022/01/20 07:19:55;;;;;;;;;;;3.20;99.90;;;;;;5092612;28;19908;-70
2022/01/20 07:22:21;;;;;;;;;;;;;;;;;;5091882;28;20303;-70
2022/01/20 07:24:47;;;;;;;;;;;3.20;99.90;;;;;;5092517;28;20348;-69
2022/01/20 07:27:13;;;;;;;;;;;;;;;;;;5091997;28;20018;-79
2022/01/20 07:29:39;;;;;;;;;;;3.10;99.90;;;;;;5092178;28;19919;-69
2022/01/20 07:32:06;;;;;;;;;;;3.20;99.90;;;;;;5092262;28;20421;-70
2022/01/20 07:34:32;;;;;;;;;;;3.10;99.90;;;;;;5091687;28;20008;-69
2022/01/20 07:36:57;;;;;;;;;;;3.10;99.90;;;;;;5074231;28;19962;-69
2022/01/20 07:39:23;;;;;;;;;;;3.00;99.90;;;;;;5091234;28;19918;-71
2022/01/20 07:41:48;;;;;;;;;;;3.00;99.90;;;;;;5073974;28;19912;-67
2022/01/20 07:44:17;;;;;;;;;;;;;;;;;;5092074;28;20006;-74
2022/01/20 07:46:46;;;;;;;;;;;3.20;99.90;;;;;;5092418;28;19908;-71
2022/01/20 07:49:12;;;;;;;;;;;3.10;99.90;;;;;;5092662;28;19916;-71
2022/01/20 07:51:37;;;;;;;;;;;3.00;99.90;;;;;;5077884;28;19915;-71
2022/01/20 07:54:03;;;;;;;;;;;;;;;;;;5103785;28;19912;-72
2022/01/20 07:56:29;;;;;;;;;;;2.90;99.90;;;;;;5104366;28;19912;-72
2022/01/20 07:58:54;;;;;;;;;;;2.90;99.90;;;;;;5105351;28;19915;-71
2022/01/20 08:01:20;;;;;;;;;;;;;;;;;;5105686;28;20371;-72
2022/01/20 08:03:45;;;;;;;;;;;2.90;99.90;;;;;;5104798;28;20349;-71
2022/01/20 08:06:11;;;;;;;;;;;2.90;99.90;;;;;;5105195;28;20005;-72
2022/01/20 08:08:37;;;;;;;;;;;;;;;;;;5104775;28;20273;-71
2022/01/20 08:11:03;;;;;;;;;;;2.80;99.90;;;;;;5103935;28;20356;-71
2022/01/20 08:13:28;;;;;;;;;;;;;;;;;;5105023;28;19964;-70
2022/01/20 08:15:54;;;;;;;;;;;2.90;99.90;;;;;;5105357;28;19944;-71
2022/01/20 08:18:19;;;;;;;;;;;3.00;99.90;;;;;;5095950;28;19931;-72
2022/01/20 08:20:45;;;;;;;;;;;3.00;99.90;;;;;;5096121;28;19908;-73
2022/01/20 08:23:12;;;;;;;;;;;3.00;99.90;;;;;;5095617;28;19908;-74
2022/01/20 08:25:37;;;;;;;;;;;3.00;99.90;;;;;;5095395;28;19934;-74
2022/01/20 08:28:03;;;;;;;;;;;3.00;99.90;;;;;;5095631;28;19916;-74
2022/01/20 08:30:29;;;;;;;;;;;3.10;99.90;;;;;;5095329;28;19908;-74
2022/01/20 08:32:54;;;;;;;;;;;3.10;99.90;;;;;;5096184;28;19962;-74
2022/01/20 08:35:21;;;;;;;;;;;3.20;99.90;;;;;;5077095;28;19908;-74
2022/01/20 08:37:46;;;;;;;;;;;3.20;99.90;;;;;;5095531;28;19955;-74
2022/01/20 08:40:13;;;;;;;;;;;3.20;99.90;;;;;;5077607;28;19935;-74
2022/01/20 08:42:42;;;;;;;;;;;3.20;99.90;;;;;;5076859;28;19913;-74
2022/01/20 08:45:09;;;;;;;;;;;3.20;99.90;;;;;;5095689;28;19915;-74
2022/01/20 08:47:34;;;;;;;;;;;3.10;99.90;;;;;;5076751;28;19916;-74
2022/01/20 08:50:00;;;;;;;;;;;3.10;99.90;;;;;;5095278;28;19908;-74
2022/01/20 08:52:28;;;;;;;;;;;3.10;99.90;;;;;;5094950;28;19908;-74
2022/01/20 08:54:54;;;;;;;;;;;3.10;99.90;;;;;;5095477;28;19917;-74
2022/01/20 08:57:20;;;;;;;;;;;3.10;99.90;;;;;;5094836;28;19912;-74
2022/01/20 08:59:45;;;;;;;;;;;3.10;99.90;;;;;;5095339;28;19908;-74
2022/01/20 09:02:11;;;;;;;;;;;3.20;99.90;;;;;;5095007;28;19912;-74
2022/01/20 09:04:37;;;;;;;;;;;3.30;99.90;;;;;;5094758;28;19951;-74
2022/01/20 09:07:03;;;;;;;;;;;3.40;99.90;;;;;;5095037;28;19920;-74
2022/01/20 09:09:28;;;;;;;;;;;3.30;99.90;;;;;;5094688;28;19924;-74
2022/01/20 09:12:16;;;;;;;;;;;3.30;99.90;;;;;;5077037;28;19959;-75
2022/01/20 09:17:27;;;;;;;;;;;3.30;99.90;;;;;;5094551;28;19967;-74
2022/01/20 09:19:53;;;;;;;;;;;3.30;99.90;;;;;;5076812;28;19916;-74
2022/01/20 09:22:19;;;;;;;;;;;3.40;99.90;;;;;;5094015;28;19908;-75
2022/01/20 09:24:45;;;;;;;;;;;3.50;99.90;;;;;;5077017;28;19985;-74
2022/01/20 09:27:12;;;;;;;;;;;3.40;99.90;;;;;;5094807;28;19908;-74
2022/01/20 09:29:38;;;;;;;;;;;3.40;99.90;;;;;;5093911;28;20378;-74
2022/01/20 09:32:06;;;;;;;;;;;3.40;99.90;;;;;;5094793;28;19908;-74
2022/01/20 09:34:31;;;;;;;;;;;3.40;99.90;;;;;;5094106;28;19962;-74
2022/01/20 09:36:57;;;;;;;;;;;3.50;99.90;;;;;;5094753;28;19912;-75
2022/01/20 09:39:23;;;;;;;;;;;3.50;99.90;;;;;;5094080;28;19916;-75
2022/01/20 09:41:48;;;;;;;;;;;3.60;99.90;;;;;;5094965;28;20049;-75
2022/01/20 09:44:14;;;;;;;;;;;3.60;99.90;;;;;;5076410;28;19908;-75
2022/01/20 09:46:39;;;;;;;;;;;3.70;99.90;;;;;;5093912;28;20041;-75
2022/01/20 09:49:05;;;;;;;;;;;3.80;99.90;;;;;;5094356;28;19918;-74
2022/01/20 09:51:30;;;;;;;;;;;3.70;99.90;;;;;;5075625;28;19912;-75
2022/01/20 09:53:56;;;;;;;;;;;3.70;99.90;;;;;;5094369;28;20352;-75
2022/01/20 09:56:22;;;;;;;;;;;3.80;99.90;;;;;;5093707;28;19908;-75
2022/01/20 09:58:47;;;;;;;;;;;3.80;99.90;;;;;;5076104;28;19908;-75
2022/01/20 10:01:15;;;;;;;;;;;;;;;;;;5094193;28;19908;-75
2022/01/20 10:03:45;;;;;;;;;;;3.80;99.90;;;;;;5093532;28;19912;-75
2022/01/20 10:06:11;;;;;;;;;;;3.80;99.90;;;;;;5094406;28;19931;-75
2022/01/20 10:08:36;;;;;;;;;;;;;;;;;;5092860;28;20364;-75
2022/01/20 10:11:05;;;;;;;;;;;3.70;99.90;;;;;;5093972;28;19947;-75
2022/01/20 10:13:32;;;;;;;;;;;3.80;99.90;;;;;;5092654;28;19908;-75
2022/01/20 10:15:58;;;;;;;;;;;;;;;;;;5099482;28;19923;-74
2022/01/20 10:18:24;;;;;;;;;;;;;;;;;;5083206;28;19937;-76
2022/01/20 10:20:54;;;;;;;;;;;3.80;99.90;;;;;;5091644;28;19918;-75
2022/01/20 10:23:20;;;;;;;;;;;;;;;;;;5113928;28;19908;-75
2022/01/20 10:25:46;;;;;;;;;;;3.90;99.90;;;;;;5090711;28;19908;-74
2022/01/20 10:28:12;;;;;;;;;;;3.90;99.90;;;;;;5102734;28;19963;-74
2022/01/20 10:30:37;;;;;;;;;;;3.90;99.80;;;;;;5101646;28;19911;-74
2022/01/20 10:33:03;;;;;;;;;;;3.80;97.50;;;;;;5103668;28;19908;-74
2022/01/20 10:35:34;;;;;;;;;;;3.90;97.60;;;;;;5101067;28;19945;-74
2022/01/20 10:38:13;;;;;;;;;;;4.00;97.50;;;;;;5105188;28;20375;-74
2022/01/20 10:40:38;;;;;;;;;;;;;;;;;;5108445;28;19920;-75
2022/01/20 10:43:04;;;;;;;;;;;3.90;96.30;;;;;;5099444;28;19961;-74
2022/01/20 10:45:30;;;;;;;;;;;;;;;;;;5099882;28;20041;-74
2022/01/20 10:47:57;;;;;;;;;;;4.00;96.80;;;;;;5098968;28;19927;-75
2022/01/20 10:50:24;;;;;;;;;;;;;;;;;;5107315;28;19962;-75
2022/01/20 10:52:51;;;;;;;;;;;4.00;95.90;;;;;;5104260;28;19939;-74
2022/01/20 10:55:24;;;;;;;;;;;3.90;95.40;;;;;;5113525;28;19911;-74
2022/01/20 10:57:50;;;;;;;;;;;3.90;95.80;;;;;;5095417;28;20317;-74
2022/01/20 11:00:19;;;;;;;;;;;3.90;95.60;;;;;;5113552;28;19908;-74
2022/01/20 11:02:47;;;;;;;;;;;4.00;95.60;;;;;;5112235;28;19971;-73
2022/01/20 11:05:15;;;;;;;;;;;4.00;93.20;;;;;;5093416;28;19912;-71
2022/01/20 11:07:42;;;;;;;;;;;4.00;93.90;;;;;;5100764;28;19920;-74
2022/01/20 11:10:10;;;;;;;;;;;4.10;94.70;;;;;;5102817;28;19955;-76
2022/01/20 11:12:35;;;;;;;;;;;4.10;94.40;;;;;;5100880;28;19912;-74
2022/01/20 11:15:06;;;;;;;;;;;4.10;94.70;;;;;;5083294;28;19957;-73
2022/01/20 11:17:33;;;;;;;;;;;4.20;95.00;;;;;;5100370;28;19908;-74
2022/01/20 11:20:06;;;;;;;;;;;4.10;93.70;;;;;;5101972;28;19912;-75
2022/01/20 11:22:32;;;;;;;;;;;4.20;93.70;;;;;;5100605;28;19908;-74
2022/01/20 11:24:59;;;;;;;;;;;4.10;92.90;;;;;;5102592;28;19992;-73
2022/01/20 11:27:34;;;;;;;;;;;4.10;92.90;;;;;;5096480;28;20024;-73
2022/01/20 11:30:01;;;;;;;;;;;4.30;93.80;;;;;;5096788;28;20364;-72
2022/01/20 11:32:29;;;;;;;;;;;4.30;92.60;;;;;;5096536;28;19908;-73
2022/01/20 11:35:03;;;;;;;;;;;4.30;92.40;;;;;;5097243;28;19931;-72
2022/01/20 11:37:32;;;;;;;;;;;4.10;89.00;;;;;;5099413;28;19916;-73
2022/01/20 11:40:08;;;;;;;;;;;4.10;92.60;;;;;;5087806;28;20276;-73
2022/01/20 11:42:34;;;;;;;;;;;4.00;94.20;;;;;;5105214;28;19915;-73
2022/01/20 11:44:59;;;;;;;;;;;4.00;94.30;;;;;;5105543;28;20272;-73
2022/01/20 11:47:32;;;;;;;;;;;3.90;95.10;;;;;;5095243;28;19915;-74
2022/01/20 11:49:58;;;;;;;;;;;;;;;;;;5110667;28;20004;-73
2022/01/20 11:52:24;;;;;;;;;;;;;;;;;;5114121;28;19946;-73
2022/01/20 11:54:50;;;;;;;;;;;4.00;91.10;;;;;;5113614;28;19933;-72
2022/01/20 11:57:18;;;;;;;;;;;4.10;91.10;;;;;;5114355;28;20411;-74
2022/01/20 11:59:46;;;;;;;;;;;4.00;90.80;;;;;;5094838;28;20365;-73
2022/01/20 12:02:12;;;;;;;;;;;;;;;;;;5113546;28;19908;-75
2022/01/20 12:04:38;;;;;;;;;;;;;;;;;;5112942;28;19934;-73
2022/01/20 12:07:04;;;;;;;;;;;;;;;;;;5113285;28;19923;-73
2022/01/20 12:09:30;;;;;;;;;;;;;;;;;;5113132;28;19954;-73
2022/01/20 12:11:56;;;;;;;;;;;;;;;;;;5094999;28;19951;-76
2022/01/20 12:14:22;;;;;;;;;;;;;;;;;;5113461;28;19908;-74
2022/01/20 12:16:48;;;;;;;;;;;;;;;;;;5112619;28;19908;-74
2022/01/20 12:19:14;;;;;;;;;;;;;;;;;;5113235;28;20254;-74
2022/01/20 12:21:40;;;;;;;;;;;;;;;;;;5094451;28;19960;-73
2022/01/20 12:24:06;;;;;;;;;;;;;;;;;;5094484;28;19947;-74
2022/01/20 12:26:32;;;;;;;;;;;;;;;;;;5094549;28;20309;-74
2022/01/20 12:28:58;;;;;;;;;;;;;;;;;;5113486;28;20455;-73
2022/01/20 12:31:23;;;;;;;;;;;4.40;73.00;;;;;;5113162;28;20010;-72
2022/01/20 12:33:52;;;;;;;;;;;4.50;72.20;;;;;;5113036;28;19908;-74
2022/01/20 12:36:17;;;;;;;;;;;4.50;70.70;;;;;;5112360;28;19912;-73
2022/01/20 12:38:43;;;;;;;;;;;;;;;;;;5112509;28;19918;-73
2022/01/20 12:41:09;;;;;;;;;;;;;;;;;;5113127;28;19959;-73
2022/01/20 12:43:38;;;;;;;;;;;4.30;74.20;;;;;;5094140;28;20340;-73
2022/01/20 12:46:04;;;;;;;;;;;;;;;;;;5112534;28;19911;-72
2022/01/20 12:48:30;;;;;;;;;;;;;;;;;;5111464;28;19961;-76
2022/01/20 12:50:56;;;;;;;;;;;;;;;;;;5112306;28;19985;-75
2022/01/20 12:53:22;;;;;;;;;;;;;;;;;;5094173;28;20236;-75
2022/01/20 12:55:52;;;;;;;;;;;4.30;76.70;;;;;;5091297;28;19912;-75
2022/01/20 12:58:17;;;;;;;;;;;4.40;76.70;;;;;;5081740;28;20376;-75
2022/01/20 13:00:43;;;;;;;;;;;;;;;;;;5098969;28;19912;-75
2022/01/20 13:03:09;;;;;;;;;;;;;;;;;;5091900;28;19920;-76
2022/01/20 13:05:41;;;;;;;;;;;;;;;;;;5091158;28;20284;-72
2022/01/20 13:08:06;;;;;;;;;;;4.50;65.30;;;;;;5091684;28;20346;-73
2022/01/20 13:10:34;;;;;;;;;;;;;;;;;;5072553;28;20015;-73
2022/01/20 13:13:05;;;;;;;;;;;;;;;;;;5091309;28;19955;-74
2022/01/20 13:15:31;;;;;;;;;;;;;;;;;;5103022;28;19922;-75
2022/01/20 13:17:57;;;;;;;;;;;;;;;;;;5111755;28;19912;-75
2022/01/20 13:20:24;;;;;;;;;;;5.00;52.00;;;;;;5111949;28;20360;-75
2022/01/20 13:23:54;;;;;;;;;;;4.80;49.00;;;;;;5107729;28;19927;-74
2022/01/20 13:26:04;;;;;;;;;;;5.20;49.20;;;;;;5101429;28;19918;-73
2022/01/20 13:28:30;;;;;;;;;;;;;;;;;;5103707;28;19923;-77
2022/01/20 13:30:55;;;;;;;;;;;4.90;42.80;;;;;;5102522;28;19916;-73
2022/01/20 13:33:25;;;;;;;;;;;5.10;37.50;;;;;;5104480;28;20363;-72
2022/01/20 13:35:59;;;;;;;;;;;5.10;40.90;;;;;;5103367;28;20387;-74
2022/01/20 13:38:25;;;;;;;;;;;;;;;;;;5086157;28;20399;-75
2022/01/20 13:40:51;;;;;;;;;;;5.40;40.10;;;;;;5094682;28;19955;-73
2022/01/20 13:46:04;;;;;;;;;;;5.20;42.80;;;;;;5114901;28;20015;-72
2022/01/20 13:48:32;;;;;;;;;;;4.90;40.30;;;;;;5113783;28;19942;-73
2022/01/20 13:50:58;;;;;;;;;;;;;;;;;;5113964;28;19908;-70
2022/01/20 13:53:26;;;;;;;;;;;4.60;34.00;;;;;;5114685;28;20344;-73
2022/01/20 13:55:52;;;;;;;;;;;4.60;35.70;;;;;;5113834;28;19980;-73
2022/01/20 13:58:22;;;;;;;;;;;4.60;36.50;;;;;;5114955;28;20010;-73
2022/01/20 14:00:47;;;;;;;;;;;4.60;37.90;;;;;;5114058;28;19931;-72
2022/01/20 14:03:13;;;;;;;;;;;4.60;38.00;;;;;;5114566;28;20364;-73
2022/01/20 14:05:38;;;;;;;;;;;4.60;34.30;;;;;;5113927;28;19912;-73
2022/01/20 14:08:04;;;;;;;;;;;4.60;34.40;;;;;;5113996;28;20236;-73
2022/01/20 14:10:30;;;;;;;;;;;4.50;34.80;;;;;;5114089;28;19912;-73
2022/01/20 14:12:56;;;;;;;;;;;4.50;34.90;;;;;;5113843;28;19908;-73
2022/01/20 14:15:25;;;;;;;;;;;4.40;35.60;;;;;;5096070;28;19916;-72
2022/01/20 14:17:53;;;;;;;;;;;4.50;31.80;;;;;;5113737;28;19914;-73
2022/01/20 14:20:20;;;;;;;;;;;5.00;29.80;;;;;;5114288;28;20379;-73
2022/01/20 14:22:46;;;;;;;;;;;;;;;;;;5109932;28;19934;-78
2022/01/20 14:25:12;;;;;;;;;;;5.10;30.60;;;;;;5111944;28;19916;-74
2022/01/20 14:27:38;;;;;;;;;;;5.00;32.90;;;;;;5113476;28;19984;-71
2022/01/20 14:30:05;;;;;;;;;;;4.70;33.90;;;;;;5113901;28;19958;-70
2022/01/20 14:32:31;;;;;;;;;;;4.70;36.30;;;;;;5114001;28;19960;-71
2022/01/20 14:34:56;;;;;;;;;;;4.60;38.50;;;;;;5113443;28;19908;-71
2022/01/20 14:37:22;;;;;;;;;;;4.60;38.60;;;;;;5113818;28;20394;-71
2022/01/20 14:39:47;;;;;;;;;;;4.60;33.60;;;;;;5113331;28;19959;-71
2022/01/20 14:42:16;;;;;;;;;;;4.60;33.90;;;;;;5095875;28;20006;-71
2022/01/20 14:44:43;;;;;;;;;;;4.80;31.50;;;;;;5113273;28;19908;-71
2022/01/20 14:47:09;;;;;;;;;;;4.70;32.40;;;;;;5114092;28;19912;-71
2022/01/20 14:49:35;;;;;;;;;;;;;;;;;;5094938;28;20253;-82
2022/01/20 14:52:01;;;;;;;;;;;4.60;30.00;;;;;;5095368;28;19956;-71
2022/01/20 14:54:26;;;;;;;;;;;4.40;32.60;;;;;;5095452;28;19995;-70
2022/01/20 14:56:52;;;;;;;;;;;4.00;42.50;;;;;;5113140;28;20436;-71
2022/01/20 14:59:18;;;;;;;;;;;3.90;51.80;;;;;;5113327;28;19914;-71
2022/01/20 15:01:43;;;;;;;;;;;3.60;68.70;;;;;;5112999;28;20258;-69
2022/01/20 15:04:09;;;;;;;;;;;3.50;78.20;;;;;;5113657;28;20347;-69
2022/01/20 15:06:35;;;;;;;;;;;3.40;91.90;;;;;;5095086;28;19951;-71
2022/01/20 15:09:01;;;;;;;;;;;3.40;94.00;;;;;;5113268;28;19969;-71
